Time;durP1;ratioP1;P1;durP2;ratioP2;P2;SDS_P1;SDS_P2;PMS_P1;PMS_P2;Temp;Humidity;BMP_temperature;BMP_pressure;BME280_temperature;BME280_humidity;BME280_pressure;Samples;Min_cycle;Max_cycle;Signal;HPM_P1;HPM_P2
2023/12/30 00:01:13;;;;;;;11.73;4.63;;;;;;;3.42;86.82;95158.56;4994319;28;20185;-66
2023/12/30 00:03:38;;;;;;;2.00;1.90;;;;;;;3.46;86.21;95164.25;5010291;28;20185;-65
2023/12/30 00:06:04;;;;;;;0.60;0.60;;;;;;;3.50;86.21;95164.75;5013848;28;20226;-66
2023/12/30 00:08:29;;;;;;;15.43;14.40;;;;;;;3.55;85.87;95170.28;5013538;28;20208;-65
2023/12/30 00:10:55;;;;;;;0.80;0.80;;;;;;;3.45;87.36;95170.44;5013450;28;20300;-66
2023/12/30 00:13:20;;;;;;;0.87;0.87;;;;;;;3.40;86.71;95163.09;5013615;28;20181;-65
2023/12/30 00:15:46;;;;;;;2.80;2.70;;;;;;;3.35;86.73;95162.78;5014015;28;20330;-66
2023/12/30 00:18:11;;;;;;;0.87;0.87;;;;;;;3.42;85.85;95166.38;5013753;28;20188;-66
2023/12/30 00:20:37;;;;;;;1.20;1.20;;;;;;;3.44;85.59;95165.41;5013659;28;20190;-66
2023/12/30 00:23:02;;;;;;;3.80;3.27;;;;;;;3.34;85.29;95168.13;5013787;28;20311;-66
2023/12/30 00:25:27;;;;;;;2.13;2.03;;;;;;;3.35;85.57;95172.38;5013630;28;20231;-66
2023/12/30 00:27:53;;;;;;;2.07;1.97;;;;;;;3.31;85.47;95173.66;5013335;28;20293;-66
2023/12/30 00:30:19;;;;;;;0.50;0.50;;;;;;;3.25;86.15;95175.09;5013553;28;20176;-65
2023/12/30 00:32:44;;;;;;;1.00;1.00;;;;;;;3.18;86.32;95178.50;5013300;28;20188;-66
2023/12/30 00:35:09;;;;;;;1.13;1.03;;;;;;;2.99;86.41;95146.56;5013383;28;20185;-66
2023/12/30 00:37:35;;;;;;;6.57;6.23;;;;;;;3.22;86.46;95172.81;5006289;28;20232;-66
2023/12/30 00:40:01;;;;;;;0.60;0.60;;;;;;;3.34;86.31;95181.16;4993683;28;20280;-66
2023/12/30 00:42:26;;;;;;;0.50;0.50;;;;;;;3.41;87.96;95182.13;5003950;28;20188;-66
2023/12/30 00:44:51;;;;;;;7.60;6.90;;;;;;;3.31;88.82;95177.06;4992514;28;20424;-66
2023/12/30 00:47:17;;;;;;;0.60;0.60;;;;;;;3.51;89.15;95176.78;4993403;28;20216;-66
2023/12/30 00:49:43;;;;;;;2.33;2.23;;;;;;;3.62;90.01;95171.28;4993485;28;20208;-66
2023/12/30 00:52:09;;;;;;;1.00;1.00;;;;;;;3.82;90.69;95177.81;4993297;28;20181;-66
2023/12/30 00:54:35;;;;;;;4.93;3.27;;;;;;;3.87;89.24;95172.94;4993116;28;20184;-66
2023/12/30 00:57:00;;;;;;;1.27;1.27;;;;;;;3.89;88.02;95165.78;4993548;28;20188;-66
2023/12/30 00:59:26;;;;;;;0.53;0.53;;;;;;;3.94;87.32;95189.53;4993430;28;20180;-66
2023/12/30 01:01:51;;;;;;;2.83;2.73;;;;;;;4.05;87.09;95184.03;4993091;28;20193;-66
2023/12/30 01:04:16;;;;;;;0.50;0.50;;;;;;;4.14;86.71;95185.66;4993216;28;20185;-66
2023/12/30 01:06:42;;;;;;;5.23;0.80;;;;;;;3.96;85.64;95184.19;4993067;28;20236;-66
2023/12/30 01:09:07;;;;;;;0.73;0.73;;;;;;;3.93;85.19;95182.72;4992960;28;20557;-66
2023/12/30 01:11:34;;;;;;;0.43;0.43;;;;;;;4.04;85.07;95190.22;4993084;28;20263;-66
2023/12/30 01:13:59;;;;;;;0.40;0.40;;;;;;;3.94;83.68;95193.94;4992957;28;20243;-66
2023/12/30 01:16:25;;;;;;;0.90;0.90;;;;;;;3.77;83.75;95190.50;4993248;28;20181;-66
2023/12/30 01:18:51;;;;;;;7.77;4.23;;;;;;;3.67;83.42;95185.44;4992880;28;20181;-66
2023/12/30 01:21:17;;;;;;;0.60;0.60;;;;;;;3.58;83.94;95185.59;4992860;28;20192;-67
2023/12/30 01:23:43;;;;;;;1.23;1.13;;;;;;;3.49;84.26;95182.16;4992814;28;20182;-67
2023/12/30 01:26:08;;;;;;;0.60;0.60;;;;;;;3.52;84.47;95188.84;4992649;28;20236;-67
2023/12/30 01:28:34;;;;;;;0.50;0.50;;;;;;;3.36;84.22;95176.59;4992736;28;20184;-66
2023/12/30 01:30:59;;;;;;;0.40;0.40;;;;;;;3.33;85.03;95182.94;4992715;28;20239;-66
2023/12/30 01:33:25;;;;;;;12.07;6.33;;;;;;;3.40;84.81;95181.31;4992617;28;20189;-66
2023/12/30 01:35:50;;;;;;;0.50;0.50;;;;;;;3.14;84.70;95135.56;4992688;28;20181;-65
2023/12/30 01:38:16;;;;;;;1.77;1.73;;;;;;;3.26;85.44;95168.13;4992744;28;20195;-66
2023/12/30 01:40:42;;;;;;;0.90;0.90;;;;;;;3.24;85.42;95165.66;4992384;28;20180;-66
2023/12/30 01:43:30;;;;;;;0.50;0.50;;;;;;;3.19;85.22;95173.16;4992492;28;20216;-66
2023/12/30 01:46:04;;;;;;;0.50;0.50;;;;;;;3.17;85.85;95171.66;4992313;28;20231;-66
2023/12/30 01:48:30;;;;;;;0.50;0.50;;;;;;;3.09;86.07;95169.03;5010069;28;20267;-66
2023/12/30 01:50:58;;;;;;;0.60;0.60;;;;;;;3.17;86.16;95172.47;5012001;28;20176;-66
2023/12/30 01:53:26;;;;;;;0.80;0.80;;;;;;;3.08;86.90;95160.41;5011843;28;20181;-66
2023/12/30 01:55:52;;;;;;;1.57;1.53;;;;;;;3.16;86.42;95165.66;5011319;28;20207;-66
2023/12/30 01:58:19;;;;;;;0.50;0.50;;;;;;;2.97;86.14;95151.09;5011727;28;20655;-66
2023/12/30 02:00:48;;;;;;;0.57;0.57;;;;;;;2.70;87.01;95117.53;5011712;28;20183;-65
2023/12/30 02:03:15;;;;;;;0.50;0.50;;;;;;;2.75;87.02;95149.09;5011746;28;20183;-65
2023/12/30 02:05:40;;;;;;;0.50;0.50;;;;;;;2.53;87.50;95150.41;5011688;28;20172;-66
2023/12/30 02:08:06;;;;;;;1.47;1.47;;;;;;;2.60;88.87;95148.81;5011399;28;20261;-66
2023/12/30 02:10:31;;;;;;;0.60;0.60;;;;;;;2.73;88.34;95151.00;5011328;28;20220;-66
2023/12/30 02:12:57;;;;;;;0.60;0.60;;;;;;;2.77;87.73;95146.34;5011463;28;20187;-67
2023/12/30 02:15:24;;;;;;;1.03;1.03;;;;;;;2.76;87.15;95147.28;5011545;28;20185;-66
2023/12/30 02:17:51;;;;;;;1.23;1.13;;;;;;;2.81;86.98;95152.81;5011500;28;20929;-66
2023/12/30 02:20:18;;;;;;;0.60;0.60;;;;;;;2.56;87.04;95118.94;5011459;28;20184;-66
2023/12/30 02:22:47;;;;;;;0.80;0.80;;;;;;;2.73;86.55;95148.41;5011461;28;20176;-66
2023/12/30 02:25:13;;;;;;;0.50;0.50;;;;;;;2.67;86.29;95156.84;5011318;28;20181;-66
2023/12/30 02:27:43;;;;;;;8.20;5.97;;;;;;;2.74;86.56;95147.44;5011279;28;20684;-67
2023/12/30 02:30:10;;;;;;;0.90;0.90;;;;;;;2.71;86.56;95149.53;4993973;28;20194;-67
2023/12/30 02:32:36;;;;;;;0.90;0.90;;;;;;;2.71;86.82;95150.34;5011029;28;20176;-67
2023/12/30 02:35:01;;;;;;;0.60;0.60;;;;;;;2.58;87.56;95148.19;5010965;28;20612;-66
2023/12/30 02:37:27;;;;;;;5.47;5.07;;;;;;;2.62;87.37;95146.91;5011356;28;20647;-66
2023/12/30 02:39:52;;;;;;;0.50;0.50;;;;;;;2.64;87.37;95147.56;5011126;28;20212;-66
2023/12/30 02:42:18;;;;;;;0.50;0.50;;;;;;;2.70;87.16;95150.50;4993150;28;20239;-66
2023/12/30 02:44:43;;;;;;;4.17;3.80;;;;;;;2.70;86.72;95153.91;5010935;28;20628;-66
2023/12/30 02:47:09;;;;;;;5.40;5.00;;;;;;;2.81;86.33;95158.03;5010765;28;20208;-66
2023/12/30 02:49:34;;;;;;;0.50;0.50;;;;;;;2.81;86.34;95153.66;5010613;28;20224;-66
2023/12/30 02:52:00;;;;;;;0.73;0.73;;;;;;;2.80;85.48;95149.41;5010962;28;20234;-66
2023/12/30 02:54:27;;;;;;;1.57;1.57;;;;;;;2.77;86.09;95143.72;5010801;28;20526;-66
2023/12/30 02:56:52;;;;;;;1.10;1.10;;;;;;;2.79;86.29;95146.97;4993160;28;20172;-66
2023/12/30 02:59:18;;;;;;;0.97;0.97;;;;;;;2.78;86.17;95146.16;5010706;28;20187;-66
2023/12/30 03:01:43;;;;;;;1.70;1.60;;;;;;;2.78;86.08;95146.16;5010672;28;20259;-66
2023/12/30 03:04:09;;;;;;;0.93;0.93;;;;;;;2.64;85.67;95134.56;4993069;28;20582;-66
2023/12/30 03:06:35;;;;;;;0.80;0.80;;;;;;;2.80;86.00;95148.59;4990461;28;20205;-66
2023/12/30 03:09:01;;;;;;;0.70;0.70;;;;;;;2.74;86.33;95144.84;4990762;28;20180;-67
2023/12/30 03:11:26;;;;;;;0.50;0.50;;;;;;;2.58;86.46;95147.38;4991011;28;20631;-66
2023/12/30 03:13:52;;;;;;;0.60;0.60;;;;;;;2.51;86.54;95139.34;4990829;28;20236;-66
2023/12/30 03:16:18;;;;;;;1.63;1.53;;;;;;;2.54;85.94;95141.66;4991355;28;20340;-67
2023/12/30 03:18:45;;;;;;;0.80;0.80;;;;;;;2.62;86.03;95139.09;4990929;28;20185;-67
2023/12/30 03:21:17;;;;;;;3.37;3.17;;;;;;;2.49;86.12;95141.31;4991074;28;20292;-67
2023/12/30 03:23:42;;;;;;;1.60;1.60;;;;;;;2.55;85.79;95140.69;4990854;28;20173;-66
2023/12/30 03:26:09;;;;;;;2.17;2.07;;;;;;;2.51;85.31;95144.56;4990717;28;20319;-67
2023/12/30 03:28:35;;;;;;;1.33;1.33;;;;;;;2.51;86.10;95148.94;4990857;28;20198;-66
2023/12/30 03:31:01;;;;;;;0.57;0.57;;;;;;;2.56;86.51;95141.50;4973499;28;20193;-66
2023/12/30 03:33:26;;;;;;;0.50;0.50;;;;;;;2.60;85.77;95146.22;4991057;28;20207;-65
2023/12/30 03:35:52;;;;;;;0.60;0.60;;;;;;;2.62;85.74;95133.91;4990838;28;20207;-66
2023/12/30 03:38:18;;;;;;;4.20;3.80;;;;;;;2.69;85.22;95148.88;4990790;28;20204;-66
2023/12/30 03:40:44;;;;;;;0.90;0.90;;;;;;;2.75;85.80;95156.06;4990468;28;20183;-66
2023/12/30 03:43:09;;;;;;;0.63;0.63;;;;;;;2.64;85.52;95137.16;4990495;28;20181;-66
2023/12/30 03:45:35;;;;;;;0.80;0.80;;;;;;;2.81;85.40;95161.44;4990731;28;20205;-66
2023/12/30 03:48:00;;;;;;;0.90;0.90;;;;;;;2.81;85.64;95164.03;4992092;28;20221;-65
2023/12/30 03:50:26;;;;;;;0.60;0.60;;;;;;;2.79;86.00;95158.19;4990738;28;20181;-66
2023/12/30 03:52:52;;;;;;;3.07;2.97;;;;;;;2.67;86.28;95161.22;4990594;28;20177;-65
2023/12/30 03:55:17;;;;;;;1.80;1.80;;;;;;;2.74;86.39;95160.44;4990493;28;20185;-65
2023/12/30 03:57:43;;;;;;;0.50;0.50;;;;;;;2.76;85.76;95166.31;4990748;28;20244;-66
2023/12/30 04:00:09;;;;;;;0.40;0.40;;;;;;;2.65;85.39;95159.59;4973184;28;20644;-66
2023/12/30 04:02:35;;;;;;;1.23;1.23;;;;;;;2.57;85.40;95166.53;4990676;28;20268;-66
2023/12/30 04:05:00;;;;;;;2.00;2.00;;;;;;;2.56;85.39;95159.69;4990634;28;20264;-65
2023/12/30 04:07:26;;;;;;;1.80;1.50;;;;;;;2.58;85.72;95166.38;4990355;28;20723;-65
2023/12/30 04:09:51;;;;;;;5.33;4.93;;;;;;;2.48;86.01;95168.25;4990387;28;20280;-65
2023/12/30 04:12:17;;;;;;;3.07;2.97;;;;;;;2.54;86.46;95159.03;4973429;28;20177;-65
2023/12/30 04:14:44;;;;;;;2.27;2.20;;;;;;;2.58;86.10;95153.38;4990098;28;20188;-66
2023/12/30 04:17:09;;;;;;;0.93;0.93;;;;;;;2.71;85.86;95165.94;4973072;28;20642;-65
2023/12/30 04:19:35;;;;;;;0.50;0.50;;;;;;;2.73;86.12;95166.59;4975626;28;20185;-65
2023/12/30 04:22:01;;;;;;;0.67;0.67;;;;;;;2.75;86.13;95164.69;4993918;28;20567;-65
2023/12/30 04:24:27;;;;;;;4.63;4.33;;;;;;;2.77;85.83;95167.91;4976467;28;20181;-65
2023/12/30 04:26:53;;;;;;;1.27;1.23;;;;;;;2.70;85.92;95166.91;4993705;28;20263;-65
2023/12/30 04:29:18;;;;;;;0.60;0.60;;;;;;;2.64;86.29;95168.34;4976286;28;20184;-65
2023/12/30 04:31:44;;;;;;;3.17;2.70;;;;;;;2.63;86.47;95168.50;4993777;28;20632;-65
2023/12/30 04:34:10;;;;;;;0.90;0.90;;;;;;;2.52;85.98;95168.75;4993593;28;20215;-65
2023/12/30 04:36:35;;;;;;;2.30;2.20;;;;;;;2.52;86.61;95173.94;5001666;28;20647;-65
2023/12/30 04:39:01;;;;;;;9.57;8.90;;;;;;;2.48;86.76;95173.47;4995271;28;20192;-65
2023/12/30 04:41:27;;;;;;;0.50;0.50;;;;;;;2.41;86.75;95174.22;4995368;28;20187;-65
2023/12/30 04:43:54;;;;;;;1.57;1.43;;;;;;;2.42;87.14;95171.44;4995001;28;20181;-65
2023/12/30 04:46:20;;;;;;;0.50;0.50;;;;;;;2.42;86.51;95179.25;4995475;28;20207;-65
2023/12/30 04:48:45;;;;;;;0.60;0.60;;;;;;;2.40;86.46;95180.38;5012734;28;20176;-65
2023/12/30 04:51:11;;;;;;;0.53;0.53;;;;;;;2.39;85.61;95183.94;5012873;28;20552;-65
2023/12/30 04:53:37;;;;;;;1.83;1.73;;;;;;;2.39;86.58;95186.53;5012623;28;20188;-65
2023/12/30 04:56:04;;;;;;;2.73;2.63;;;;;;;2.47;85.44;95187.41;5012972;28;20637;-66
2023/12/30 04:58:30;;;;;;;1.47;1.37;;;;;;;2.39;85.62;95195.16;5012900;28;20183;-66
2023/12/30 05:00:56;;;;;;;0.63;0.63;;;;;;;2.34;85.63;95194.78;4995079;28;20172;-66
2023/12/30 05:03:22;;;;;;;0.60;0.60;;;;;;;2.36;86.03;95194.63;5012548;28;20180;-65
2023/12/30 05:05:48;;;;;;;1.70;1.60;;;;;;;2.33;86.74;95200.97;4995160;28;20241;-66
2023/12/30 05:08:13;;;;;;;1.63;1.53;;;;;;;2.44;86.53;95197.28;5012611;28;20292;-66
2023/12/30 05:10:38;;;;;;;0.60;0.60;;;;;;;2.45;86.29;95199.72;5012484;28;20224;-66
2023/12/30 05:13:04;;;;;;;0.70;0.70;;;;;;;2.33;86.41;95169.81;5012578;28;20259;-66
2023/12/30 05:15:29;;;;;;;1.43;1.33;;;;;;;2.55;86.36;95194.44;5012410;28;20575;-66
2023/12/30 05:17:55;;;;;;;3.23;2.30;;;;;;;2.53;86.88;95202.38;5012352;28;20173;-66
2023/12/30 05:20:20;;;;;;;0.50;0.50;;;;;;;2.65;86.39;95195.97;5012358;28;20219;-66
2023/12/30 05:22:46;;;;;;;0.70;0.70;;;;;;;2.69;86.57;95193.84;5012049;28;20298;-66
2023/12/30 05:25:11;;;;;;;3.03;2.93;;;;;;;2.64;87.42;95194.34;4994441;28;20184;-66
2023/12/30 05:27:38;;;;;;;1.27;1.27;;;;;;;2.36;87.28;95173.84;5012094;28;20343;-66
2023/12/30 05:30:07;;;;;;;0.90;0.90;;;;;;;2.51;86.79;95200.91;5011358;28;20173;-66
2023/12/30 05:32:33;;;;;;;0.60;0.60;;;;;;;2.37;86.40;95191.06;5012041;28;20184;-66
2023/12/30 05:34:59;;;;;;;3.70;3.50;;;;;;;2.22;87.24;95198.59;5012051;28;20182;-66
2023/12/30 05:37:24;;;;;;;0.70;0.70;;;;;;;2.28;87.02;95193.63;5011920;28;20176;-66
2023/12/30 05:39:50;;;;;;;0.87;0.87;;;;;;;2.31;87.70;95197.69;5011971;28;20652;-65
2023/12/30 05:42:16;;;;;;;3.73;3.47;;;;;;;2.21;86.89;95186.59;5012069;28;20187;-65
2023/12/30 05:44:41;;;;;;;1.03;1.03;;;;;;;2.39;86.50;95189.97;5012163;28;20655;-65
2023/12/30 05:47:07;;;;;;;1.17;1.17;;;;;;;2.28;87.16;95198.00;5011927;28;20319;-66
2023/12/30 05:49:33;;;;;;;0.57;0.57;;;;;;;2.33;87.08;95202.75;5011784;28;20180;-66
2023/12/30 05:51:58;;;;;;;0.63;0.63;;;;;;;2.19;87.17;95183.31;5009783;28;20183;-66
2023/12/30 05:54:26;;;;;;;0.60;0.60;;;;;;;2.27;87.58;95219.72;5011860;28;20176;-66
2023/12/30 05:56:53;;;;;;;2.13;2.03;;;;;;;2.32;87.00;95217.50;5011792;28;20176;-66
2023/12/30 05:59:18;;;;;;;2.80;2.70;;;;;;;2.29;87.01;95207.41;5011569;28;20558;-66
2023/12/30 06:01:45;;;;;;;0.60;0.60;;;;;;;2.38;87.74;95211.69;5011734;28;20169;-65
2023/12/30 06:04:11;;;;;;;0.80;0.80;;;;;;;2.46;88.07;95214.34;5011755;28;20645;-66
2023/12/30 06:06:36;;;;;;;0.70;0.70;;;;;;;2.51;87.86;95209.50;4993977;28;20200;-66
2023/12/30 06:09:02;;;;;;;1.00;1.00;;;;;;;2.56;87.80;95212.47;5011329;28;20208;-67
2023/12/30 06:11:28;;;;;;;0.80;0.80;;;;;;;2.54;88.43;95217.00;5011731;28;20185;-66
2023/12/30 06:13:54;;;;;;;0.50;0.50;;;;;;;2.57;87.72;95218.50;5011573;28;20199;-66
2023/12/30 06:16:20;;;;;;;0.90;0.90;;;;;;;2.65;87.38;95227.16;5011728;28;20620;-66
2023/12/30 06:18:45;;;;;;;0.50;0.50;;;;;;;2.65;86.50;95219.34;5011282;28;20180;-66
2023/12/30 06:21:11;;;;;;;4.20;3.90;;;;;;;2.60;86.59;95224.19;5011322;28;20176;-66
2023/12/30 06:23:36;;;;;;;1.13;1.13;;;;;;;2.70;86.20;95221.47;5011097;28;20255;-66
2023/12/30 06:26:02;;;;;;;0.60;0.60;;;;;;;2.75;85.42;95232.25;5011101;28;20180;-67
2023/12/30 06:28:27;;;;;;;0.97;0.93;;;;;;;2.86;84.84;95223.34;5011155;28;20211;-66
2023/12/30 06:30:53;;;;;;;0.70;0.70;;;;;;;2.85;85.13;95227.75;5011085;28;20981;-66
2023/12/30 06:33:20;;;;;;;0.87;0.87;;;;;;;2.65;84.88;95216.75;5010874;28;20180;-66
2023/12/30 06:35:45;;;;;;;0.83;0.83;;;;;;;2.80;85.48;95235.19;5011113;28;20180;-66
2023/12/30 06:38:11;;;;;;;18.03;7.77;;;;;;;2.71;85.47;95240.50;5010918;28;20169;-66
2023/12/30 06:40:36;;;;;;;0.50;0.50;;;;;;;2.86;85.47;95244.16;5010742;28;20647;-66
2023/12/30 06:43:02;;;;;;;2.10;2.00;;;;;;;2.94;85.25;95239.03;5010849;28;20748;-67
2023/12/30 06:45:28;;;;;;;1.33;1.33;;;;;;;3.02;84.32;95246.84;5010945;28;20264;-66
2023/12/30 06:47:53;;;;;;;2.30;2.20;;;;;;;2.80;84.82;95258.59;5010650;28;20258;-65
2023/12/30 06:50:21;;;;;;;1.30;1.27;;;;;;;3.02;85.82;95254.66;5010783;28;20217;-66
2023/12/30 06:52:47;;;;;;;5.87;5.57;;;;;;;3.36;84.09;95254.66;5010662;28;20272;-66
2023/12/30 06:55:13;;;;;;;8.17;7.77;;;;;;;3.31;83.45;95234.28;5010701;28;20259;-66
2023/12/30 06:57:40;;;;;;;0.50;0.50;;;;;;;3.49;83.19;95262.81;5010489;28;20238;-66
2023/12/30 07:00:08;;;;;;;0.50;0.50;;;;;;;3.56;82.69;95242.19;5010710;28;20179;-66
2023/12/30 07:02:34;;;;;;;1.00;0.93;;;;;;;3.69;83.03;95261.59;5010538;28;20187;-66
2023/12/30 07:04:59;;;;;;;0.90;0.90;;;;;;;3.68;83.03;95267.78;5010409;28;20175;-66
2023/12/30 07:07:25;;;;;;;0.60;0.60;;;;;;;4.06;82.97;95262.97;4992446;28;20209;-66
2023/12/30 07:09:50;;;;;;;0.50;0.50;;;;;;;4.47;80.92;95269.84;4990705;28;20304;-66
2023/12/30 07:12:16;;;;;;;0.67;0.67;;;;;;;4.63;79.90;95269.00;4990839;28;20559;-66
2023/12/30 07:14:42;;;;;;;1.00;1.00;;;;;;;4.52;78.73;95274.56;4990832;28;20173;-67
2023/12/30 07:17:08;;;;;;;0.50;0.50;;;;;;;4.43;79.07;95258.09;4990602;28;20247;-66
2023/12/30 07:19:33;;;;;;;0.50;0.50;;;;;;;4.63;78.73;95278.63;4990807;28;20211;-66
2023/12/30 07:21:59;;;;;;;0.50;0.50;;;;;;;4.79;78.93;95281.22;4991193;28;20212;-66
2023/12/30 07:24:25;;;;;;;1.90;1.80;;;;;;;5.40;78.88;95279.78;4990805;28;20181;-66
2023/12/30 07:26:50;;;;;;;0.60;0.60;;;;;;;6.15;76.48;95280.91;4990647;28;20200;-66
2023/12/30 07:29:16;;;;;;;0.50;0.50;;;;;;;6.79;74.69;95278.81;4990632;28;20230;-67
2023/12/30 07:31:41;;;;;;;0.50;0.50;;;;;;;7.67;72.33;95255.31;4990794;28;20181;-67
2023/12/30 07:34:07;;;;;;;1.30;1.30;;;;;;;8.83;68.62;95293.66;4990719;28;20189;-66
2023/12/30 07:36:33;;;;;;;2.63;2.43;;;;;;;9.06;66.96;95299.53;4990527;28;20173;-66
2023/12/30 07:38:58;;;;;;;1.33;1.33;;;;;;;9.90;63.91;95302.06;4990664;28;20184;-66
2023/12/30 07:41:23;;;;;;;1.87;1.77;;;;;;;10.98;60.59;95295.91;4990705;28;20181;-67
2023/12/30 07:43:49;;;;;;;8.20;7.60;;;;;;;11.78;57.75;95298.25;4990569;28;20180;-67
2023/12/30 07:46:15;;;;;;;2.47;2.37;;;;;;;12.05;56.93;95275.25;4989924;28;20694;-65
2023/12/30 07:48:41;;;;;;;1.87;1.77;;;;;;;13.76;52.58;95297.81;4990271;28;20192;-65
2023/12/30 07:51:06;;;;;;;1.73;1.73;;;;;;;15.07;48.48;95303.31;4990092;28;20263;-65
2023/12/30 07:53:32;;;;;;;11.82;3.45;;;;;;;15.38;46.88;95301.41;4991523;28;20177;-65
2023/12/30 07:55:58;;;;;;;8.50;6.55;;;;;;;16.57;44.72;95298.16;4993950;28;20185;-65
2023/12/30 07:58:23;;;;;;;0.88;0.82;;;;;;;16.50;43.89;95299.34;4994485;28;20266;-65
2023/12/30 08:00:49;;;;;;;0.77;0.77;;;;;;;17.84;42.06;95299.53;4994252;28;20177;-65
2023/12/30 08:03:15;;;;;;;2.70;2.60;;;;;;;18.68;39.53;95290.22;4994022;28;20177;-67
2023/12/30 08:05:40;;;;;;;6.90;3.13;;;;;;;18.99;38.11;95275.34;5011647;28;20180;-65
2023/12/30 08:08:08;;;;;;;1.92;1.83;;;;;;;19.20;37.31;95308.34;5013597;28;20259;-65
2023/12/30 08:10:34;;;;;;;5.00;3.38;;;;;;;17.82;40.08;95301.63;5001786;28;20220;-65
2023/12/30 08:13:00;;;;;;;2.45;2.35;;;;;;;18.15;39.95;95298.91;4993756;28;20704;-65
2023/12/30 08:15:26;;;;;;;5.00;4.55;;;;;;;18.23;38.72;95293.16;4993836;28;20268;-66
2023/12/30 08:17:51;;;;;;;3.45;3.00;;;;;;;17.66;39.37;95287.28;4993601;28;20188;-65
2023/12/30 08:20:17;;;;;;;5.65;5.18;;;;;;;18.00;39.37;95314.66;4993621;28;20267;-65
2023/12/30 08:22:42;;;;;;;6.90;3.78;;;;;;;17.83;40.17;95319.22;4993639;28;20177;-65
2023/12/30 08:25:08;;;;;;;4.20;3.75;;;;;;;17.24;41.49;95326.78;4975869;28;20177;-65
2023/12/30 08:27:34;;;;;;;3.42;3.25;;;;;;;16.70;42.76;95306.91;4993605;28;20209;-65
2023/12/30 08:30:00;;;;;;;4.95;4.55;;;;;;;16.45;42.19;95315.19;4993592;28;20181;-65
2023/12/30 08:32:25;;;;;;;6.07;5.57;;;;;;;15.57;44.54;95323.38;4993747;28;20633;-64
2023/12/30 08:34:51;;;;;;;7.63;7.05;;;;;;;15.45;44.56;95316.19;4993695;28;20570;-65
2023/12/30 08:37:17;;;;;;;6.95;2.40;;;;;;;15.54;45.03;95303.41;4976258;28;20173;-65
2023/12/30 08:39:43;;;;;;;2.20;2.10;;;;;;;15.72;45.87;95310.47;4993529;28;20638;-65
2023/12/30 08:42:09;;;;;;;0.83;0.83;;;;;;;15.46;46.69;95315.16;4993702;28;20191;-65
2023/12/30 08:44:40;;;;;;;8.53;8.00;;;;;;;15.12;46.87;95313.25;4976103;28;20189;-65
2023/12/30 08:47:06;;;;;;;2.60;2.50;;;;;;;13.95;48.36;95311.88;4993476;28;20333;-64
2023/12/30 08:49:31;;;;;;;7.63;5.20;;;;;;;13.52;49.64;95307.41;4993345;28;20194;-65
2023/12/30 08:51:58;;;;;;;2.90;2.57;;;;;;;12.73;52.12;95301.91;4993416;28;20235;-66
2023/12/30 08:54:25;;;;;;;3.20;2.87;;;;;;;12.00;55.24;95304.09;4993540;28;20195;-67
2023/12/30 08:56:53;;;;;;;1.10;1.10;;;;;;;12.11;55.24;95292.09;4993465;28;20177;-67
2023/12/30 08:59:19;;;;;;;0.73;0.73;;;;;;;12.39;54.64;95295.19;4993135;28;20652;-67
2023/12/30 09:01:45;;;;;;;4.97;4.60;;;;;;;12.46;54.04;95288.84;4993251;28;20677;-67
2023/12/30 09:04:11;;;;;;;1.70;1.67;;;;;;;12.59;54.54;95284.53;4993079;28;20185;-67
2023/12/30 09:06:36;;;;;;;2.60;2.50;;;;;;;12.64;54.88;95274.13;4991924;28;20197;-67
2023/12/30 09:09:04;;;;;;;4.97;4.73;;;;;;;12.79;54.24;95272.00;4992359;28;20185;-68
2023/12/30 09:11:32;;;;;;;1.27;1.27;;;;;;;13.17;53.06;95282.50;5009879;28;20188;-67
2023/12/30 09:13:58;;;;;;;4.27;4.00;;;;;;;13.23;54.01;95281.66;5011334;28;20189;-67
2023/12/30 09:16:24;;;;;;;0.73;0.73;;;;;;;13.08;52.94;95279.28;5011959;28;20190;-66
2023/12/30 09:18:49;;;;;;;1.73;1.63;;;;;;;13.10;53.25;95273.78;5012145;28;20200;-66
2023/12/30 09:21:15;;;;;;;1.90;1.80;;;;;;;13.00;53.22;95282.19;5012281;28;20562;-66
2023/12/30 09:23:41;;;;;;;2.53;1.63;;;;;;;12.94;53.50;95269.03;5012186;28;20687;-66
2023/12/30 09:26:06;;;;;;;1.60;1.57;;;;;;;13.01;53.52;95270.59;5011948;28;20191;-66
2023/12/30 09:28:33;;;;;;;0.40;0.40;;;;;;;12.97;53.85;95243.00;5012096;28;20287;-66
2023/12/30 09:30:59;;;;;;;3.87;3.60;;;;;;;12.88;54.14;95264.63;5011872;28;20180;-66
2023/12/30 09:33:24;;;;;;;1.10;0.97;;;;;;;12.94;54.83;95242.63;5011924;28;20180;-66
2023/12/30 09:35:54;;;;;;;1.37;1.27;;;;;;;13.18;53.32;95232.06;5011183;28;20231;-66
2023/12/30 09:38:22;;;;;;;5.77;2.40;;;;;;;13.33;53.71;95257.34;5010602;28;20186;-66
2023/12/30 09:40:49;;;;;;;1.23;1.23;;;;;;;13.14;53.79;95256.53;5011027;28;20179;-66
2023/12/30 09:43:21;;;;;;;1.10;1.10;;;;;;;12.88;54.43;95246.94;5011097;28;20254;-66
2023/12/30 09:45:49;;;;;;;2.53;1.13;;;;;;;12.48;55.65;95244.56;5011349;28;20181;-66
2023/12/30 09:48:16;;;;;;;3.13;2.93;;;;;;;12.05;57.24;95246.22;5011167;28;20212;-66
2023/12/30 09:50:43;;;;;;;3.37;2.63;;;;;;;11.90;58.06;95238.56;5011571;28;20173;-66
2023/12/30 09:53:08;;;;;;;6.40;3.23;;;;;;;11.78;58.30;95239.41;5011605;28;20267;-66
2023/12/30 09:55:34;;;;;;;1.57;0.87;;;;;;;12.14;58.00;95238.88;5011224;28;20259;-66
2023/12/30 09:58:00;;;;;;;1.93;1.83;;;;;;;11.72;58.85;95226.03;5011375;28;20578;-66
2023/12/30 10:00:27;;;;;;;1.17;1.17;;;;;;;11.76;58.46;95230.94;4993812;28;20267;-66
2023/12/30 10:02:53;;;;;;;1.47;1.47;;;;;;;11.94;58.62;95229.19;5011022;28;20176;-66
2023/12/30 10:05:19;;;;;;;0.40;0.40;;;;;;;12.04;57.38;95234.84;5011292;28;20203;-66
2023/12/30 10:07:44;;;;;;;0.50;0.50;;;;;;;11.96;57.20;95206.06;5011144;28;20192;-66
2023/12/30 10:10:10;;;;;;;1.03;1.03;;;;;;;12.07;56.98;95225.72;5011066;28;20221;-66
2023/12/30 10:12:35;;;;;;;0.70;0.70;;;;;;;12.03;57.00;95221.84;5011247;28;20180;-66
2023/12/30 10:15:01;;;;;;;2.70;2.60;;;;;;;11.92;57.25;95225.19;5011047;28;20664;-66
2023/12/30 10:17:26;;;;;;;0.80;0.80;;;;;;;11.86;58.56;95218.88;5010523;28;20177;-66
2023/12/30 10:19:53;;;;;;;1.67;1.57;;;;;;;11.92;58.25;95206.72;5011091;28;20180;-66
2023/12/30 10:22:18;;;;;;;7.07;6.53;;;;;;;12.04;58.05;95212.94;5010831;28;20184;-66
2023/12/30 10:24:44;;;;;;;0.80;0.80;;;;;;;12.08;57.79;95207.03;5011335;28;20198;-66
2023/12/30 10:27:10;;;;;;;8.73;7.67;;;;;;;12.14;58.15;95205.38;5010798;28;20235;-66
2023/12/30 10:29:36;;;;;;;0.93;0.93;;;;;;;12.09;57.18;95200.75;5011290;28;20280;-66
2023/12/30 10:32:03;;;;;;;0.60;0.60;;;;;;;12.02;57.63;95193.88;5011417;28;20184;-66
2023/12/30 10:34:31;;;;;;;0.70;0.70;;;;;;;11.99;57.62;95205.66;5011174;28;20184;-66
2023/12/30 10:36:57;;;;;;;1.13;1.13;;;;;;;11.98;57.46;95190.84;4993786;28;20176;-66
2023/12/30 10:39:25;;;;;;;1.47;1.47;;;;;;;11.62;58.54;95194.00;5011248;28;20191;-66
2023/12/30 10:41:51;;;;;;;0.70;0.70;;;;;;;11.49;60.54;95194.06;5011049;28;20251;-66
2023/12/30 10:44:17;;;;;;;4.33;4.00;;;;;;;11.31;59.29;95191.28;5011029;28;20180;-66
2023/12/30 10:46:48;;;;;;;1.40;1.40;;;;;;;11.33;59.38;95189.22;5010522;28;20275;-66
2023/12/30 10:49:16;;;;;;;2.70;1.53;;;;;;;11.32;59.47;95171.81;5010570;28;20212;-66
2023/12/30 10:51:43;;;;;;;1.83;1.70;;;;;;;11.37;59.35;95179.91;5010707;28;20176;-66
2023/12/30 10:54:13;;;;;;;1.97;1.87;;;;;;;11.13;59.97;95167.41;4997446;28;20185;-66
2023/12/30 10:56:57;;;;;;;0.77;0.77;;;;;;;11.16;60.28;95173.03;4991235;28;20223;-66
2023/12/30 10:59:27;;;;;;;0.37;0.37;;;;;;;11.16;60.48;95165.13;4991258;28;20676;-66
2023/12/30 11:01:53;;;;;;;0.50;0.50;;;;;;;10.90;61.05;95170.47;4998880;28;20275;-66
2023/12/30 11:04:21;;;;;;;2.60;2.37;;;;;;;11.06;61.52;95171.88;5010238;28;20635;-66
2023/12/30 11:06:56;;;;;;;4.13;2.40;;;;;;;11.12;61.58;95165.78;5010612;28;20259;-66
2023/12/30 11:09:23;;;;;;;1.13;1.10;;;;;;;11.15;61.21;95163.56;5010185;28;20289;-67
2023/12/30 11:11:51;;;;;;;3.17;2.97;;;;;;;11.09;60.53;95147.72;5010638;28;20272;-66
2023/12/30 11:14:17;;;;;;;2.03;1.47;;;;;;;11.32;60.68;95161.28;5010366;28;20183;-66
2023/12/30 11:16:43;;;;;;;3.27;3.07;;;;;;;11.32;60.95;95151.53;5010711;28;20263;-67
2023/12/30 11:19:09;;;;;;;2.37;2.23;;;;;;;11.30;60.51;95158.03;5010310;28;20214;-66
2023/12/30 11:21:44;;;;;;;0.40;0.40;;;;;;;11.08;60.63;95112.69;5010167;28;20211;-67
2023/12/30 11:24:18;;;;;;;0.87;0.87;;;;;;;11.51;61.00;95149.81;5010092;28;20266;-66
2023/12/30 11:26:45;;;;;;;0.40;0.40;;;;;;;11.53;60.76;95137.25;4995368;28;20210;-66
2023/12/30 11:29:12;;;;;;;0.70;0.70;;;;;;;11.59;60.62;95135.59;4993199;28;20177;-67
2023/12/30 11:31:41;;;;;;;0.93;0.93;;;;;;;11.55;60.69;95137.84;4994037;28;20660;-66
2023/12/30 11:34:07;;;;;;;0.57;0.57;;;;;;;11.52;60.79;95133.00;4994148;28;20189;-66